Time;durP1;ratioP1;P1;durP2;ratioP2;P2;SDS_P1;SDS_P2;PMS_P1;PMS_P2;Temp;Humidity;BMP_temperature;BMP_pressure;BME280_temperature;BME280_humidity;BME280_pressure;Samples;Min_cycle;Max_cycle;Signal;HPM_P1;HPM_P2
2021/05/12 00:00:23;;;;;;;4.40;4.10;;;17.80;99.90;;;;;;5138054;27;20252;-69
2021/05/12 00:02:49;;;;;;;4.93;3.93;;;18.00;99.90;;;;;;5138000;27;20195;-68
2021/05/12 00:05:17;;;;;;;3.90;3.60;;;17.90;99.90;;;;;;5119452;27;20936;-70
2021/05/12 00:07:42;;;;;;;3.50;3.20;;;17.90;99.90;;;;;;5137831;27;20472;-68
2021/05/12 00:10:10;;;;;;;3.77;3.10;;;17.80;99.90;;;;;;5138011;27;20921;-68
2021/05/12 00:12:36;;;;;;;6.40;3.70;;;17.80;99.90;;;;;;5138231;27;20234;-67
2021/05/12 00:15:10;;;;;;;5.97;3.57;;;17.80;99.90;;;;;;5137703;27;20400;-70
2021/05/12 00:17:37;;;;;;;6.40;4.53;;;17.90;99.90;;;;;;5138288;27;20527;-69
2021/05/12 00:20:05;;;;;;;4.27;3.47;;;17.80;99.90;;;;;;5137805;27;20539;-68
2021/05/12 00:25:00;;;;;;;5.77;3.80;;;17.70;99.90;;;;;;5137841;27;20411;-69
2021/05/12 00:27:26;;;;;;;8.33;3.97;;;17.60;99.90;;;;;;5119367;27;20434;-67
2021/05/12 00:29:51;;;;;;;4.93;3.23;;;17.50;99.90;;;;;;5118896;27;20455;-68
2021/05/12 00:32:17;;;;;;;3.60;3.23;;;17.50;99.90;;;;;;5118834;27;20222;-67
2021/05/12 00:34:43;;;;;;;3.70;3.40;;;17.50;99.90;;;;;;5137372;27;20411;-68
2021/05/12 00:37:08;;;;;;;4.13;3.17;;;17.60;99.90;;;;;;5137841;27;20187;-68
2021/05/12 00:39:34;;;;;;;4.07;3.67;;;17.70;99.90;;;;;;5137233;27;20217;-68
2021/05/12 00:42:00;;;;;;;4.00;3.70;;;17.60;99.90;;;;;;5137689;27;20183;-68
2021/05/12 00:44:26;;;;;;;3.67;3.33;;;17.70;99.90;;;;;;5137250;27;20187;-67
2021/05/12 00:46:52;;;;;;;3.23;3.03;;;17.80;99.90;;;;;;5118965;27;20434;-69
2021/05/12 00:49:22;;;;;;;3.37;3.17;;;17.70;99.90;;;;;;5137103;27;20419;-68
2021/05/12 00:51:48;;;;;;;3.50;3.20;;;17.50;99.90;;;;;;5137504;27;20423;-67
2021/05/12 00:54:14;;;;;;;3.90;3.50;;;17.80;99.90;;;;;;5137013;27;20440;-69
2021/05/12 00:56:42;;;;;;;3.93;3.27;;;17.50;99.90;;;;;;5118657;27;20187;-69
2021/05/12 00:59:08;;;;;;;4.00;3.10;;;17.60;99.90;;;;;;5136935;27;20187;-68
2021/05/12 01:01:34;;;;;;;3.80;3.50;;;17.60;99.90;;;;;;5137169;27;20411;-66
2021/05/12 01:04:00;;;;;;;3.70;3.40;;;17.40;99.90;;;;;;5136798;27;20427;-66
2021/05/12 01:06:29;;;;;;;7.00;3.60;;;17.30;99.90;;;;;;5137172;27;20868;-68
2021/05/12 01:08:55;;;;;;;4.00;3.57;;;17.20;99.90;;;;;;5135904;27;20199;-67
2021/05/12 01:11:21;;;;;;;8.20;3.73;;;17.30;99.90;;;;;;5117944;27;20419;-68
2021/05/12 01:13:48;;;;;;;3.70;3.33;;;17.00;99.90;;;;;;5118065;27;20521;-66
2021/05/12 01:16:15;;;;;;;4.80;3.90;;;17.00;99.90;;;;;;5136734;27;20503;-67
2021/05/12 01:18:41;;;;;;;4.17;3.70;;;16.90;99.90;;;;;;5136495;27;20788;-68
2021/05/12 01:21:08;;;;;;;5.57;4.00;;;16.90;99.90;;;;;;5136674;27;20420;-67
2021/05/12 01:23:36;;;;;;;4.83;4.20;;;16.80;99.90;;;;;;5118035;27;21035;-68
2021/05/12 01:26:05;;;;;;;5.37;4.40;;;16.70;99.90;;;;;;5136564;27;20423;-68
2021/05/12 01:28:34;;;;;;;4.60;4.00;;;16.60;99.90;;;;;;5136357;27;20427;-68
2021/05/12 01:31:16;;;;;;;4.43;4.03;;;16.70;99.90;;;;;;5136284;27;20516;-67
2021/05/12 01:33:43;;;;;;;5.53;3.93;;;16.60;99.90;;;;;;5136087;27;20466;-67
2021/05/12 01:36:09;;;;;;;7.90;3.90;;;16.50;99.90;;;;;;5117875;27;20430;-67
2021/05/12 01:38:36;;;;;;;5.27;4.63;;;16.50;99.90;;;;;;5136090;27;20415;-69
2021/05/12 01:41:03;;;;;;;3.77;3.37;;;16.50;99.90;;;;;;5136162;27;20424;-69
2021/05/12 01:43:30;;;;;;;5.10;4.60;;;16.40;99.90;;;;;;5136092;27;20419;-66
2021/05/12 01:45:56;;;;;;;4.53;4.00;;;16.40;99.90;;;;;;5136147;27;20767;-68
2021/05/12 01:48:22;;;;;;;5.20;4.30;;;16.40;99.90;;;;;;5135773;27;20505;-68
2021/05/12 01:50:48;;;;;;;4.80;4.03;;;16.30;99.90;;;;;;5135999;27;20243;-67
2021/05/12 01:53:14;;;;;;;4.67;4.27;;;16.30;99.90;;;;;;5135826;27;20511;-68
2021/05/12 01:55:40;;;;;;;8.10;4.83;;;16.20;99.90;;;;;;5135954;27;20180;-68
2021/05/12 01:58:06;;;;;;;4.43;4.10;;;16.20;99.90;;;;;;5117311;27;20470;-68
2021/05/12 02:00:37;;;;;;;6.60;4.50;;;16.10;99.90;;;;;;5135755;27;20431;-68
2021/05/12 02:03:05;;;;;;;5.00;4.60;;;16.10;99.90;;;;;;5135803;27;20442;-68
2021/05/12 02:05:31;;;;;;;5.47;4.30;;;16.10;99.90;;;;;;5135656;27;20403;-68
2021/05/12 02:07:58;;;;;;;5.30;4.73;;;16.00;99.90;;;;;;5117183;27;20470;-67
2021/05/12 02:10:26;;;;;;;4.93;4.33;;;15.90;99.90;;;;;;5135569;27;20819;-67
2021/05/12 02:12:52;;;;;;;6.77;4.53;;;15.80;99.90;;;;;;5135313;27;20462;-68
2021/05/12 02:15:19;;;;;;;6.43;4.90;;;15.80;99.90;;;;;;5135393;27;20395;-67
2021/05/12 02:17:45;;;;;;;4.67;4.27;;;15.80;99.90;;;;;;5135361;27;20427;-67
2021/05/12 02:20:13;;;;;;;4.93;4.07;;;15.90;99.90;;;;;;5135376;27;20905;-69
2021/05/12 02:22:39;;;;;;;5.17;4.67;;;15.70;99.90;;;;;;5135669;27;20458;-66
2021/05/12 02:25:07;;;;;;;5.77;5.07;;;15.80;99.90;;;;;;5135321;27;20395;-68
2021/05/12 02:27:32;;;;;;;6.13;4.50;;;15.70;99.90;;;;;;5135638;27;20944;-68
2021/05/12 02:30:01;;;;;;;13.03;4.93;;;15.60;99.90;;;;;;5116634;27;20458;-67
2021/05/12 02:32:30;;;;;;;5.50;4.97;;;15.50;99.90;;;;;;5116967;27;20222;-68
2021/05/12 02:34:58;;;;;;;4.63;4.23;;;15.50;99.90;;;;;;5116659;27;20942;-68
2021/05/12 02:37:25;;;;;;;5.10;4.40;;;15.50;99.90;;;;;;5135667;27;20903;-68
2021/05/12 02:39:51;;;;;;;5.87;4.50;;;15.40;99.90;;;;;;5116554;27;20442;-67
2021/05/12 02:42:17;;;;;;;4.70;4.30;;;15.40;99.90;;;;;;5116774;27;20427;-66
2021/05/12 02:44:43;;;;;;;5.40;4.87;;;15.40;99.90;;;;;;5134907;27;20399;-67
2021/05/12 02:47:09;;;;;;;5.00;4.50;;;15.40;99.90;;;;;;5135374;27;20418;-66
2021/05/12 02:49:35;;;;;;;5.13;4.63;;;15.40;99.90;;;;;;5134868;27;20415;-67
2021/05/12 02:52:01;;;;;;;5.20;4.70;;;15.40;99.90;;;;;;5135135;27;20250;-66
2021/05/12 02:54:26;;;;;;;6.50;4.97;;;15.40;99.90;;;;;;5134829;27;20422;-67
2021/05/12 02:56:52;;;;;;;9.13;4.97;;;15.40;99.90;;;;;;5135088;27;20411;-68
2021/05/12 02:59:18;;;;;;;9.20;4.90;;;15.40;99.90;;;;;;5116372;27;20656;-66
2021/05/12 03:01:43;;;;;;;7.53;4.60;;;15.40;99.90;;;;;;5135071;27;20198;-68
2021/05/12 03:04:09;;;;;;;4.60;4.20;;;15.30;99.90;;;;;;5134672;27;20427;-66
2021/05/12 03:06:34;;;;;;;5.93;5.40;;;15.40;99.90;;;;;;5116413;28;20206;-67
2021/05/12 03:09:00;;;;;;;6.37;4.47;;;15.40;99.90;;;;;;5116165;28;20186;-69
2021/05/12 03:11:26;;;;;;;6.00;4.90;;;15.40;99.90;;;;;;5134911;28;20201;-66
2021/05/12 03:13:51;;;;;;;6.70;5.40;;;15.40;99.90;;;;;;5134430;27;20214;-67
2021/05/12 03:16:17;;;;;;;5.97;4.87;;;15.40;99.90;;;;;;5116290;28;20235;-67
2021/05/12 03:18:42;;;;;;;6.10;4.60;;;15.30;99.90;;;;;;5116085;28;20199;-67
2021/05/12 03:21:08;;;;;;;7.50;4.80;;;15.30;99.90;;;;;;5134557;28;20187;-68
2021/05/12 03:23:34;;;;;;;6.10;4.70;;;15.30;99.90;;;;;;5116123;28;20561;-66
2021/05/12 03:25:59;;;;;;;5.53;5.00;;;15.20;99.90;;;;;;5134658;28;20250;-67
2021/05/12 03:28:25;;;;;;;5.10;4.70;;;15.20;99.90;;;;;;5134543;27;20773;-67
2021/05/12 03:30:51;;;;;;;9.00;5.13;;;15.10;99.90;;;;;;5116266;28;20280;-67
2021/05/12 03:33:17;;;;;;;5.10;4.70;;;15.10;99.90;;;;;;5136215;27;20210;-69
2021/05/12 03:35:43;;;;;;;5.60;4.50;;;15.20;99.90;;;;;;5138597;27;20411;-68
2021/05/12 03:38:11;;;;;;;6.17;4.93;;;15.10;99.90;;;;;;5138496;27;20419;-68
2021/05/12 03:40:38;;;;;;;8.37;6.43;;;15.10;99.90;;;;;;5138478;27;20411;-67
2021/05/12 03:43:03;;;;;;;5.40;4.90;;;15.10;99.90;;;;;;5119980;27;20439;-67
2021/05/12 03:45:29;;;;;;;5.40;4.90;;;15.20;99.90;;;;;;5138305;27;20417;-67
2021/05/12 03:47:55;;;;;;;6.23;5.30;;;15.20;99.90;;;;;;5138231;27;20962;-66
2021/05/12 03:50:25;;;;;;;6.43;4.93;;;15.40;99.90;;;;;;5138278;27;20262;-68
2021/05/12 03:52:51;;;;;;;9.77;5.27;;;15.50;99.90;;;;;;5110537;28;21066;-68
2021/05/12 03:55:17;;;;;;;5.27;4.50;;;16.30;99.90;;;;;;5115364;28;20448;-69
2021/05/12 03:57:44;;;;;;;6.93;4.70;;;17.00;99.90;;;;;;5131278;27;20585;-66
2021/05/12 04:00:12;;;;;;;5.13;4.63;;;17.10;99.90;;;;;;5134344;27;20442;-68
2021/05/12 04:02:38;;;;;;;7.20;4.83;;;17.30;99.90;;;;;;5137369;27;20459;-67
2021/05/12 04:05:04;;;;;;;6.57;4.80;;;17.40;99.90;;;;;;5137904;27;20415;-67
2021/05/12 04:07:30;;;;;;;6.07;5.47;;;17.30;99.90;;;;;;5136837;27;20183;-68
2021/05/12 04:09:55;;;;;;;5.90;4.90;;;17.10;99.90;;;;;;5118407;27;20419;-68
2021/05/12 04:12:21;;;;;;;5.77;4.97;;;17.20;99.90;;;;;;5137367;27;20714;-66
2021/05/12 04:14:47;;;;;;;5.33;4.80;;;17.30;99.90;;;;;;5137827;27;20171;-67
2021/05/12 04:17:12;;;;;;;8.97;5.90;;;17.40;99.90;;;;;;5137153;27;20185;-66
2021/05/12 04:19:38;;;;;;;8.50;6.23;;;17.60;99.90;;;;;;5137457;27;20184;-68
2021/05/12 04:22:03;;;;;;;8.60;5.60;;;17.30;99.90;;;;;;5136641;27;20176;-67
2021/05/12 04:24:30;;;;;;;7.50;5.73;;;17.70;99.90;;;;;;5136079;27;20186;-68
2021/05/12 04:26:56;;;;;;;7.67;5.50;;;17.30;99.90;;;;;;5136946;27;20187;-67
2021/05/12 04:29:21;;;;;;;5.97;5.00;;;17.30;99.90;;;;;;5135533;27;20519;-67
2021/05/12 04:31:47;;;;;;;5.47;4.80;;;17.10;99.90;;;;;;5135824;27;20187;-68
2021/05/12 04:34:13;;;;;;;6.93;3.90;;;16.90;99.90;;;;;;5134874;27;20217;-69
2021/05/12 04:36:39;;;;;;;8.23;4.73;;;17.10;99.90;;;;;;5134797;27;20286;-69
2021/05/12 04:39:05;;;;;;;5.63;4.50;;;17.10;99.90;;;;;;5117552;27;20203;-68
2021/05/12 04:41:31;;;;;;;5.10;4.70;;;17.10;99.90;;;;;;5137053;27;20748;-68
2021/05/12 04:43:56;;;;;;;6.27;4.57;;;17.30;99.90;;;;;;5134866;27;20450;-66
2021/05/12 04:46:24;;;;;;;6.40;4.90;;;17.20;99.90;;;;;;5118274;27;20600;-68
2021/05/12 04:48:50;;;;;;;6.67;4.47;;;17.50;99.90;;;;;;5134342;27;20205;-67
2021/05/12 04:51:15;;;;;;;4.83;4.37;;;17.40;99.90;;;;;;5134829;27;20458;-68
2021/05/12 04:53:41;;;;;;;4.30;3.80;;;17.60;99.90;;;;;;5135741;27;20510;-67
2021/05/12 04:56:07;;;;;;;3.67;3.37;;;17.30;99.90;;;;;;5133222;27;20258;-66
2021/05/12 04:58:33;;;;;;;4.50;4.10;;;17.40;99.90;;;;;;5133826;27;20203;-69
2021/05/12 05:00:59;;;;;;;5.57;4.20;;;17.60;99.90;;;;;;5114999;27;20463;-67
2021/05/12 05:03:25;;;;;;;5.83;3.97;;;17.50;99.90;;;;;;5116010;27;20473;-67
2021/05/12 05:05:51;;;;;;;4.00;3.60;;;17.50;99.90;;;;;;5132891;27;20459;-68
2021/05/12 05:08:16;;;;;;;5.23;4.17;;;17.60;99.90;;;;;;5115349;27;20282;-67
2021/05/12 05:10:42;;;;;;;5.10;3.80;;;17.50;99.90;;;;;;5134466;27;20193;-68
2021/05/12 05:13:08;;;;;;;4.40;4.00;;;17.50;99.90;;;;;;5134691;27;20218;-67
2021/05/12 05:15:33;;;;;;;6.73;3.77;;;17.30;99.90;;;;;;5112049;27;20293;-67
2021/05/12 05:17:59;;;;;;;9.03;3.50;;;17.30;99.90;;;;;;5133928;27;20195;-69
2021/05/12 05:20:27;;;;;;;6.97;3.73;;;17.30;99.90;;;;;;5127329;27;20203;-68
2021/05/12 05:22:52;;;;;;;6.60;3.50;;;17.20;99.90;;;;;;5123485;27;20201;-67
2021/05/12 05:25:18;;;;;;;7.53;3.50;;;17.50;99.90;;;;;;5134099;27;20407;-69
2021/05/12 05:27:44;;;;;;;4.20;3.80;;;17.60;99.90;;;;;;5135849;27;20211;-68
2021/05/12 05:30:10;;;;;;;4.13;3.00;;;17.70;99.90;;;;;;5134793;27;20226;-67
2021/05/12 05:32:36;;;;;;;5.80;3.63;;;17.40;99.90;;;;;;5135413;27;20211;-68
2021/05/12 05:35:02;;;;;;;6.00;4.03;;;17.80;99.90;;;;;;5115260;27;20806;-67
2021/05/12 05:37:27;;;;;;;3.73;3.40;;;17.20;99.90;;;;;;5136011;27;20190;-66
2021/05/12 05:39:55;;;;;;;5.93;4.40;;;17.20;99.90;;;;;;5134586;27;20266;-69
2021/05/12 05:42:21;;;;;;;8.63;3.73;;;17.00;99.90;;;;;;5132449;27;20275;-66
2021/05/12 05:44:48;;;;;;;5.50;3.87;;;16.70;99.90;;;;;;5145075;27;20951;-69
2021/05/12 05:47:14;;;;;;;5.10;4.40;;;16.80;99.90;;;;;;5147585;27;20787;-68
2021/05/12 05:49:39;;;;;;;5.87;3.83;;;16.80;99.90;;;;;;5138257;27;20422;-68
2021/05/12 05:52:05;;;;;;;9.93;3.87;;;17.00;99.90;;;;;;5144915;27;20749;-68
2021/05/12 05:54:31;;;;;;;6.63;3.83;;;16.80;99.90;;;;;;5115218;27;20560;-67
2021/05/12 05:57:03;;;;;;;5.47;3.57;;;16.70;99.90;;;;;;5142265;27;20427;-69
2021/05/12 05:59:29;;;;;;;5.63;3.30;;;16.70;99.90;;;;;;5109112;27;20216;-66
2021/05/12 06:01:57;;;;;;;5.53;3.37;;;16.80;99.90;;;;;;5140849;27;20430;-69
2021/05/12 06:04:24;;;;;;;5.53;3.60;;;16.80;99.90;;;;;;5145552;27;20445;-69
2021/05/12 06:06:50;;;;;;;4.90;3.43;;;16.70;99.90;;;;;;5151392;27;20429;-66
2021/05/12 06:09:15;;;;;;;3.47;3.07;;;16.90;99.90;;;;;;5141242;27;20966;-68
2021/05/12 06:11:41;;;;;;;4.50;3.50;;;17.10;99.90;;;;;;5149436;27;21320;-66
2021/05/12 06:14:06;;;;;;;8.23;5.03;;;17.20;99.90;;;;;;5126440;27;20210;-68
2021/05/12 06:16:32;;;;;;;4.37;3.37;;;17.20;99.90;;;;;;5130233;27;20182;-66
2021/05/12 06:18:57;;;;;;;3.13;2.83;;;17.40;99.90;;;;;;5128732;27;20198;-67
2021/05/12 06:21:25;;;;;;;5.13;3.03;;;17.70;99.90;;;;;;5127841;27;20182;-66
2021/05/12 06:23:50;;;;;;;5.20;2.83;;;18.00;99.90;;;;;;5142107;27;20586;-69
2021/05/12 06:26:18;;;;;;;3.73;3.20;;;18.20;99.90;;;;;;5133642;27;20451;-67
2021/05/12 06:28:44;;;;;;;4.80;2.60;;;18.20;99.90;;;;;;5133480;27;20275;-69
2021/05/12 06:31:11;;;;;;;7.63;2.97;;;18.60;99.90;;;;;;5133406;27;20546;-68
2021/05/12 06:33:39;;;;;;;4.20;2.73;;;18.60;99.90;;;;;;5109872;27;20908;-67
2021/05/12 06:36:08;;;;;;;3.83;3.20;;;18.70;99.90;;;;;;5135893;27;20469;-68
2021/05/12 06:38:33;;;;;;;3.40;3.10;;;18.80;99.90;;;;;;5119081;27;20435;-70
2021/05/12 06:41:00;;;;;;;4.67;3.00;;;18.70;99.90;;;;;;5113096;27;20445;-69
2021/05/12 06:43:26;;;;;;;4.37;2.77;;;18.70;99.90;;;;;;5131795;27;20195;-68
2021/05/12 06:45:52;;;;;;;6.03;3.10;;;18.70;99.90;;;;;;5127355;27;20430;-67
2021/05/12 06:48:17;;;;;;;4.30;3.50;;;18.90;99.90;;;;;;5130614;27;20940;-67
2021/05/12 06:50:44;;;;;;;3.17;2.50;;;18.70;99.90;;;;;;5112370;27;20184;-67
2021/05/12 06:53:10;;;;;;;5.67;3.30;;;18.90;99.90;;;;;;5123665;27;20343;-66
2021/05/12 06:55:36;;;;;;;5.33;2.87;;;19.00;99.90;;;;;;5097535;27;20887;-69
2021/05/12 06:58:02;;;;;;;5.03;2.60;;;19.20;99.90;;;;;;5106865;27;20472;-68
2021/05/12 07:00:28;;;;;;;4.37;2.83;;;19.20;99.90;;;;;;5111517;27;20176;-69
2021/05/12 07:02:53;;;;;;;3.20;2.87;;;19.20;99.90;;;;;;5126644;27;20453;-69
2021/05/12 07:05:21;;;;;;;5.00;3.70;;;19.40;99.90;;;;;;5123587;27;20280;-67
2021/05/12 07:07:46;;;;;;;4.07;2.93;;;19.50;99.90;;;;;;5127605;27;20192;-69
2021/05/12 07:10:13;;;;;;;8.03;3.13;;;19.50;99.90;;;;;;5111577;28;20431;-68
2021/05/12 07:12:39;;;;;;;8.37;3.13;;;19.40;99.90;;;;;;5123951;27;20248;-70
2021/05/12 07:15:06;;;;;;;8.93;3.17;;;19.50;99.90;;;;;;5131375;28;20445;-68
2021/05/12 07:17:32;;;;;;;4.77;3.70;;;19.40;99.90;;;;;;5112492;28;20505;-70
2021/05/12 07:19:58;;;;;;;3.40;3.10;;;19.70;99.90;;;;;;5130119;28;20796;-69
2021/05/12 07:22:24;;;;;;;7.70;3.37;;;19.60;99.90;;;;;;5129410;27;20177;-69
2021/05/12 07:24:50;;;;;;;3.40;3.20;;;19.60;99.90;;;;;;5126266;28;20201;-69
2021/05/12 07:27:16;;;;;;;5.93;4.30;;;19.70;99.90;;;;;;5127389;28;20417;-70
2021/05/12 07:29:42;;;;;;;3.93;3.57;;;20.10;99.90;;;;;;5126450;28;20557;-70
2021/05/12 07:32:08;;;;;;;5.57;4.10;;;20.40;99.90;;;;;;5107789;28;20894;-69
2021/05/12 07:34:33;;;;;;;7.30;3.63;;;20.50;99.90;;;;;;5124001;28;20301;-70
2021/05/12 07:36:59;;;;;;;4.57;3.40;;;20.50;99.90;;;;;;5110145;28;20543;-69
2021/05/12 07:39:28;;;;;;;4.23;3.60;;;20.70;99.90;;;;;;5114544;27;20708;-69
2021/05/12 07:41:55;;;;;;;12.67;4.27;;;21.10;99.90;;;;;;5129812;28;20186;-69
2021/05/12 07:44:21;;;;;;;5.93;4.50;;;21.20;99.90;;;;;;5116486;27;20439;-69
2021/05/12 07:46:46;;;;;;;8.13;3.70;;;21.10;99.90;;;;;;5105175;28;20546;-70
2021/05/12 07:49:12;;;;;;;10.00;3.67;;;21.20;99.90;;;;;;5105200;28;20195;-70
2021/05/12 07:51:38;;;;;;;5.10;3.70;;;21.40;99.90;;;;;;5128974;28;20190;-71
2021/05/12 07:54:03;;;;;;;5.40;3.53;;;21.30;99.90;;;;;;5129160;28;20296;-69
2021/05/12 07:56:29;;;;;;;5.50;3.97;;;21.10;99.90;;;;;;5126597;28;20175;-69
2021/05/12 07:58:55;;;;;;;7.30;3.57;;;21.20;99.90;;;;;;5124963;28;20273;-70
2021/05/12 08:01:30;;;;;;;3.67;3.37;;;21.10;99.90;;;;;;5125593;28;20649;-67
2021/05/12 08:03:56;;;;;;;4.40;3.57;;;21.10;99.90;;;;;;5127136;27;20690;-67
2021/05/12 08:06:21;;;;;;;6.40;3.50;;;21.40;99.90;;;;;;5127255;28;20519;-67
2021/05/12 08:08:47;;;;;;;5.90;3.57;;;21.50;99.90;;;;;;5133870;27;20203;-69
2021/05/12 08:11:13;;;;;;;4.47;4.03;;;21.80;99.90;;;;;;5121851;28;20617;-68
2021/05/12 08:13:38;;;;;;;4.40;3.90;;;21.90;99.90;;;;;;5128131;28;20552;-68
2021/05/12 08:16:05;;;;;;;9.63;4.23;;;22.00;99.90;;;;;;5131746;28;20179;-70
2021/05/12 08:18:30;;;;;;;6.20;3.37;;;22.10;99.90;;;;;;5113198;27;20263;-69
2021/05/12 08:20:56;;;;;;;6.80;5.37;;;22.60;99.90;;;;;;5134643;27;20434;-71
2021/05/12 08:23:23;;;;;;;7.07;4.17;;;22.90;99.90;;;;;;5131891;27;20237;-69
2021/05/12 08:25:49;;;;;;;4.10;3.80;;;22.60;99.90;;;;;;5132024;27;20955;-68
2021/05/12 08:28:15;;;;;;;9.80;5.23;;;22.50;99.90;;;;;;5132966;27;20439;-67
2021/05/12 08:30:45;;;;;;;6.43;4.13;;;22.40;99.90;;;;;;5135704;27;20487;-69
2021/05/12 08:33:11;;;;;;;4.67;3.60;;;22.40;99.90;;;;;;5134382;27;20482;-67
2021/05/12 08:35:41;;;;;;;29.33;6.10;;;22.60;99.90;;;;;;5116974;27;20430;-67
2021/05/12 08:38:07;;;;;;;6.70;4.20;;;22.80;99.90;;;;;;5132352;27;20468;-68
2021/05/12 08:40:34;;;;;;;7.63;4.60;;;22.60;99.90;;;;;;5136029;27;20448;-68
2021/05/12 08:43:02;;;;;;;4.13;3.80;;;22.90;99.90;;;;;;5133696;27;20435;-70
2021/05/12 08:45:29;;;;;;;5.27;3.80;;;22.70;99.90;;;;;;5116893;27;20434;-69
2021/05/12 08:47:55;;;;;;;4.40;4.00;;;22.70;99.90;;;;;;5132647;27;20452;-68
2021/05/12 08:50:23;;;;;;;9.20;4.23;;;22.80;99.90;;;;;;5135455;27;20450;-69
2021/05/12 08:52:49;;;;;;;6.90;4.50;;;23.10;99.90;;;;;;5133194;27;20461;-68
2021/05/12 08:55:15;;;;;;;6.03;4.30;;;23.30;99.90;;;;;;5115424;28;20392;-68
2021/05/12 08:57:41;;;;;;;8.90;4.57;;;23.50;99.90;;;;;;5123933;27;20427;-70
2021/05/12 09:00:07;;;;;;;9.03;3.73;;;23.60;99.60;;;;;;5106851;27;20952;-71
2021/05/12 09:02:33;;;;;;;4.60;3.80;;;23.70;99.10;;;;;;5134656;27;20264;-68
2021/05/12 09:04:58;;;;;;;6.97;3.77;;;23.70;99.40;;;;;;5118750;27;20432;-69
2021/05/12 09:07:24;;;;;;;5.93;3.80;;;24.20;99.00;;;;;;5115481;27;20661;-69
2021/05/12 09:09:50;;;;;;;5.80;4.57;;;24.20;98.30;;;;;;5130421;27;20239;-70
2021/05/12 09:12:16;;;;;;;6.50;3.60;;;24.50;98.60;;;;;;5132423;27;20269;-69
2021/05/12 09:14:42;;;;;;;5.43;3.77;;;24.50;98.20;;;;;;5110929;27;20419;-67
2021/05/12 09:17:08;;;;;;;5.33;4.33;;;24.40;98.30;;;;;;5124704;27;20494;-68
2021/05/12 09:19:33;;;;;;;6.13;3.83;;;24.60;98.30;;;;;;5131883;27;20431;-67
2021/05/12 09:22:05;;;;;;;4.90;4.33;;;25.00;98.20;;;;;;5132367;27;20535;-69
2021/05/12 09:24:38;;;;;;;4.80;4.40;;;24.90;98.00;;;;;;5107550;27;20199;-69
2021/05/12 09:27:09;;;;;;;5.27;3.80;;;25.10;97.20;;;;;;5112801;27;20439;-66
2021/05/12 09:29:40;;;;;;;5.53;3.97;;;25.00;97.40;;;;;;5132549;27;20531;-67
2021/05/12 09:32:07;;;;;;;4.47;3.67;;;25.00;97.20;;;;;;5130982;27;20777;-68
2021/05/12 09:34:53;;;;;;;4.50;3.80;;;25.10;96.60;;;;;;5128029;27;20949;-67
2021/05/12 09:37:26;;;;;;;4.17;3.43;;;25.40;96.70;;;;;;5132975;27;20471;-68
2021/05/12 09:39:53;;;;;;;6.63;3.33;;;25.40;97.20;;;;;;5127675;27;20441;-66
2021/05/12 09:42:20;;;;;;;5.77;5.30;;;25.80;96.00;;;;;;5128263;27;20424;-68
2021/05/12 09:44:46;;;;;;;6.77;3.80;;;25.10;96.50;;;;;;5107259;28;20430;-66
2021/05/12 09:47:28;;;;;;;10.40;3.87;;;25.40;96.10;;;;;;5115849;27;20783;-68
2021/05/12 09:49:54;;;;;;;3.67;3.33;;;25.60;96.30;;;;;;5132279;27;20180;-66
2021/05/12 09:52:29;;;;;;;5.10;3.83;;;24.90;96.80;;;;;;5109358;27;20835;-68
2021/05/12 09:55:04;;;;;;;4.10;3.40;;;24.70;96.20;;;;;;5127051;27;20438;-66
2021/05/12 09:57:29;;;;;;;3.60;3.30;;;24.70;96.80;;;;;;5123075;27;20434;-66
2021/05/12 09:59:55;;;;;;;6.50;2.80;;;24.30;97.20;;;;;;5116289;27;20408;-68
2021/05/12 10:02:21;;;;;;;3.30;3.00;;;23.90;97.80;;;;;;5143789;27;20275;-68
2021/05/12 10:04:49;;;;;;;3.87;3.00;;;23.80;98.20;;;;;;5137403;27;20174;-68
2021/05/12 10:07:27;;;;;;;4.10;3.10;;;23.70;98.80;;;;;;5139133;27;20194;-66
2021/05/12 10:09:56;;;;;;;4.17;2.70;;;23.50;99.50;;;;;;5142995;27;20414;-68
2021/05/12 10:12:23;;;;;;;4.50;2.60;;;23.20;99.90;;;;;;5134298;27;20636;-68
2021/05/12 10:14:51;;;;;;;3.60;2.60;;;23.00;99.90;;;;;;5128857;27;20424;-66
2021/05/12 10:17:18;;;;;;;3.40;2.57;;;23.10;99.90;;;;;;5131467;27;20436;-68
2021/05/12 10:19:46;;;;;;;6.87;3.70;;;23.40;99.90;;;;;;5132070;27;20490;-67
2021/05/12 10:22:12;;;;;;;4.70;3.50;;;23.20;99.90;;;;;;5126327;27;20444;-67
2021/05/12 10:24:41;;;;;;;4.47;3.40;;;23.20;99.90;;;;;;5113911;28;20421;-69
2021/05/12 10:27:09;;;;;;;3.90;3.50;;;23.40;99.90;;;;;;5105228;27;20452;-67
2021/05/12 10:29:37;;;;;;;5.33;3.63;;;23.20;99.90;;;;;;5115655;27;20992;-67
2021/05/12 10:32:24;;;;;;;5.40;4.80;;;23.40;99.90;;;;;;5132025;27;20440;-69
2021/05/12 10:35:29;;;;;;;4.77;3.13;;;23.50;99.90;;;;;;5110258;27;20829;-68
2021/05/12 10:37:55;;;;;;;4.70;3.50;;;23.40;99.90;;;;;;5116707;27;20536;-67
2021/05/12 10:40:23;;;;;;;6.30;3.83;;;23.90;99.90;;;;;;5127659;27;20532;-67
2021/05/12 10:45:32;;;;;;;4.13;3.40;;;24.10;99.90;;;;;;5132817;27;20428;-70
2021/05/12 10:47:58;;;;;;;5.03;2.90;;;24.10;99.90;;;;;;5129428;27;20543;-66
2021/05/12 10:50:49;;;;;;;4.67;3.23;;;24.00;99.90;;;;;;5130211;27;20438;-68
2021/05/12 10:53:22;;;;;;;3.40;2.80;;;24.20;99.90;;;;;;5123054;27;20476;-66
2021/05/12 10:55:57;;;;;;;4.17;2.67;;;23.70;99.90;;;;;;5111027;27;20440;-67
2021/05/12 10:58:36;;;;;;;4.50;3.50;;;23.60;99.90;;;;;;5127789;27;20756;-68
2021/05/12 11:01:08;;;;;;;5.00;2.70;;;23.50;99.90;;;;;;5130996;27;20855;-68
2021/05/12 11:03:51;;;;;;;2.80;2.23;;;23.30;99.90;;;;;;5113605;27;20445;-68
2021/05/12 11:06:24;;;;;;;5.70;3.07;;;23.30;99.90;;;;;;5128078;27;20429;-67
2021/05/12 11:09:18;;;;;;;5.73;3.07;;;23.60;99.90;;;;;;5110561;28;20439;-68
2021/05/12 11:11:44;;;;;;;3.70;3.30;;;23.60;99.90;;;;;;5121229;28;20806;-66
2021/05/12 11:14:33;;;;;;;3.40;3.10;;;23.40;99.90;;;;;;5132642;27;20465;-68
2021/05/12 11:17:09;;;;;;;6.60;3.17;;;23.30;99.90;;;;;;5127203;28;20847;-69
2021/05/12 11:19:41;;;;;;;5.10;3.30;;;23.50;99.90;;;;;;5132757;28;20441;-70
2021/05/12 11:22:29;;;;;;;3.17;2.90;;;23.80;99.90;;;;;;5112893;28;20444;-69
2021/05/12 11:25:01;;;;;;;3.40;3.07;;;24.00;99.90;;;;;;5107722;28;20437;-67
2021/05/12 11:28:00;;;;;;;4.30;3.50;;;23.90;99.90;;;;;;5130611;28;20483;-68
2021/05/12 11:33:02;;;;;;;6.03;4.40;;;24.20;99.90;;;;;;5125825;27;20550;-67
2021/05/12 11:35:27;;;;;;;3.67;2.90;;;23.70;99.90;;;;;;5129706;28;20416;-67
2021/05/12 11:37:53;;;;;;;7.03;3.97;;;23.90;99.90;;;;;;5117320;28;20968;-67
2021/05/12 11:40:19;;;;;;;5.87;3.00;;;24.00;99.90;;;;;;5122915;27;20215;-70
2021/05/12 11:42:45;;;;;;;3.83;3.00;;;24.30;99.90;;;;;;5125745;27;20202;-69
2021/05/12 11:45:18;;;;;;;4.50;3.13;;;24.20;99.90;;;;;;5126484;28;20170;-68
2021/05/12 11:47:57;;;;;;;4.67;3.40;;;24.10;99.90;;;;;;5127014;27;20842;-67
2021/05/12 11:50:32;;;;;;;4.07;2.77;;;24.10;99.90;;;;;;5111576;28;20426;-70
2021/05/12 11:52:58;;;;;;;5.70;3.23;;;23.80;99.90;;;;;;5125919;27;20812;-69
2021/05/12 11:55:32;;;;;;;4.40;3.73;;;23.80;99.90;;;;;;5129894;27;20410;-69
2021/05/12 11:57:58;;;;;;;4.60;3.60;;;24.20;99.90;;;;;;5111194;27;20497;-67
2021/05/12 12:00:36;;;;;;;5.43;3.80;;;24.30;99.90;;;;;;5132134;27;20745;-69
2021/05/12 12:03:06;;;;;;;3.60;2.87;;;24.30;99.90;;;;;;5113496;27;20453;-68
2021/05/12 12:05:52;;;;;;;4.03;3.03;;;24.30;99.90;;;;;;5109685;27;20713;-67
2021/05/12 12:08:21;;;;;;;4.67;3.27;;;24.40;99.90;;;;;;5134749;27;20438;-67
2021/05/12 12:10:46;;;;;;;4.73;3.60;;;24.60;99.90;;;;;;5136849;27;20938;-69
2021/05/12 12:13:17;;;;;;;4.13;3.07;;;24.60;99.90;;;;;;5135164;27;20491;-68
2021/05/12 12:15:45;;;;;;;5.17;3.17;;;24.50;99.90;;;;;;5131608;27;20193;-69
2021/05/12 12:18:10;;;;;;;6.77;3.50;;;24.40;99.90;;;;;;5112317;27;20482;-67
2021/05/12 12:20:37;;;;;;;3.57;3.27;;;24.30;99.90;;;;;;5129447;27;20497;-68
2021/05/12 12:23:04;;;;;;;4.77;3.13;;;24.50;99.90;;;;;;5131526;27;20199;-67
2021/05/12 12:25:40;;;;;;;4.40;3.27;;;25.00;99.90;;;;;;5127370;27;20496;-69
2021/05/12 12:28:06;;;;;;;4.40;3.23;;;25.00;99.80;;;;;;5125903;27;20466;-69
2021/05/12 12:30:31;;;;;;;5.23;3.50;;;25.30;99.10;;;;;;5139347;27;20767;-69
2021/05/12 12:32:57;;;;;;;4.20;3.37;;;25.40;99.00;;;;;;5108319;28;20657;-67
2021/05/12 12:35:22;;;;;;;4.57;3.37;;;25.30;99.70;;;;;;5127766;27;20178;-68
2021/05/12 12:37:48;;;;;;;4.40;3.77;;;25.60;99.60;;;;;;5130834;27;20264;-67
2021/05/12 12:40:14;;;;;;;5.70;3.50;;;25.20;99.90;;;;;;5131340;27;20555;-71
2021/05/12 12:42:45;;;;;;;3.50;3.10;;;25.40;99.30;;;;;;5132257;27;20206;-68
2021/05/12 12:45:31;;;;;;;5.43;3.67;;;26.00;98.50;;;;;;5134006;27;20375;-70
2021/05/12 12:47:58;;;;;;;5.70;3.40;;;25.70;98.70;;;;;;5132010;27;21006;-70
2021/05/12 12:50:25;;;;;;;4.00;3.03;;;25.20;99.10;;;;;;5132296;27;20762;-69
2021/05/12 12:52:51;;;;;;;5.30;2.90;;;25.20;99.70;;;;;;5136966;27;20512;-67
2021/05/12 12:55:18;;;;;;;12.20;3.60;;;24.70;99.90;;;;;;5135640;27;20405;-66